Time;durP1;ratioP1;P1;durP2;ratioP2;P2;SDS_P1;SDS_P2;PMS_P1;PMS_P2;Temp;Humidity;BMP_temperature;BMP_pressure;BME280_temperature;BME280_humidity;BME280_pressure;Samples;Min_cycle;Max_cycle;Signal;HPM_P1;HPM_P2
2021/12/08 00:02:28;;;;;;;26.90;14.30;;;0.40;99.70;;;;;;6228454;28;20460;-62
2021/12/08 00:05:33;;;;;;;23.57;14.87;;;0.30;99.80;;;;;;6228306;28;20455;-62
2021/12/08 00:08:36;;;;;;;19.83;14.37;;;0.30;99.90;;;;;;6227420;28;20440;-62
2021/12/08 00:15:01;;;;;;;19.53;13.60;;;0.20;99.90;;;;;;6227809;28;20480;-62
2021/12/08 00:18:06;;;;;;;14.93;13.30;;;0.30;99.90;;;;;;6227285;28;20467;-63
2021/12/08 00:21:11;;;;;;;21.47;14.93;;;0.20;99.90;;;;;;6227280;28;20514;-62
2021/12/08 00:24:14;;;;;;;21.70;15.13;;;0.20;99.90;;;;;;6227163;28;20487;-62
2021/12/08 00:27:17;;;;;;;18.27;13.27;;;0.20;99.90;;;;;;6226012;28;20486;-62
2021/12/08 00:30:20;;;;;;;22.13;14.33;;;0.20;99.90;;;;;;6227183;28;20468;-62
2021/12/08 00:33:23;;;;;;;20.27;15.13;;;0.20;99.90;;;;;;6222942;28;20476;-62
2021/12/08 00:36:39;;;;;;;19.17;13.50;;;0.20;99.90;;;;;;6226580;28;20542;-62
2021/12/08 00:39:42;;;;;;;17.83;14.10;;;0.20;99.90;;;;;;6227086;28;20552;-63
2021/12/08 00:42:47;;;;;;;16.97;12.93;;;0.20;99.90;;;;;;6226805;28;20479;-61
2021/12/08 00:45:52;;;;;;;19.17;13.10;;;0.20;99.90;;;;;;6226818;28;20487;-62
2021/12/08 00:48:55;;;;;;;16.33;13.50;;;0.20;99.90;;;;;;6226696;28;20495;-62
2021/12/08 00:51:59;;;;;;;17.80;12.77;;;0.20;99.90;;;;;;6226508;28;20472;-62
2021/12/08 00:55:06;;;;;;;16.13;12.63;;;0.20;99.90;;;;;;6217059;28;20816;-63
2021/12/08 00:58:09;;;;;;;17.50;12.33;;;0.20;99.90;;;;;;6225816;28;20484;-62
2021/12/08 01:01:12;;;;;;;16.83;11.90;;;0.20;99.90;;;;;;6226073;28;20483;-62
2021/12/08 01:04:16;;;;;;;16.90;13.87;;;0.20;99.90;;;;;;6226556;28;20558;-62
2021/12/08 01:07:20;;;;;;;21.43;19.13;;;0.20;99.90;;;;;;6226182;28;20487;-62
2021/12/08 01:10:26;;;;;;;26.80;20.00;;;0.20;99.90;;;;;;6225922;28;20475;-62
2021/12/08 01:13:37;;;;;;;18.90;14.23;;;0.10;99.90;;;;;;6225931;28;20818;-62
2021/12/08 01:16:41;;;;;;;17.47;12.83;;;0.10;99.90;;;;;;6225874;28;20479;-64
2021/12/08 01:19:45;;;;;;;12.33;10.20;;;0.10;99.90;;;;;;6225765;28;20479;-63
2021/12/08 01:22:50;;;;;;;10.80;8.97;;;0.00;99.90;;;;;;6225766;28;20483;-64
2021/12/08 01:25:53;;;;;;;13.70;10.43;;;0.00;99.90;;;;;;6225945;28;20984;-63
2021/12/08 01:28:57;;;;;;;11.20;9.97;;;0.00;99.90;;;;;;6225579;28;20487;-62
2021/12/08 01:32:00;;;;;;;13.63;9.50;;;-0.10;99.90;;;;;;6225793;28;20486;-63
2021/12/08 01:35:05;;;;;;;11.70;9.57;;;-0.10;99.90;;;;;;6225382;28;20804;-62
2021/12/08 01:38:10;;;;;;;14.73;10.20;;;-0.10;99.90;;;;;;6225514;28;20487;-63
2021/12/08 01:41:13;;;;;;;14.17;9.93;;;-0.10;99.90;;;;;;6225435;28;20475;-62
2021/12/08 01:47:37;;;;;;;20.80;11.53;;;-0.20;99.90;;;;;;6225193;28;20456;-62
2021/12/08 01:50:44;;;;;;;12.53;10.80;;;-0.20;99.70;;;;;;6225741;28;20470;-63
2021/12/08 01:53:52;;;;;;;12.03;10.37;;;-0.20;99.50;;;;;;6225580;28;20471;-63
2021/12/08 01:56:56;;;;;;;11.97;8.30;;;-0.30;99.50;;;;;;6220615;28;20479;-63
2021/12/08 01:59:59;;;;;;;11.90;7.70;;;-0.40;99.60;;;;;;6225303;28;20978;-63
2021/12/08 02:03:03;;;;;;;16.07;9.87;;;-0.40;99.70;;;;;;6225422;28;20487;-62
2021/12/08 02:06:07;;;;;;;12.97;8.70;;;-0.50;99.80;;;;;;6225340;28;20475;-61
2021/12/08 02:09:14;;;;;;;14.10;7.87;;;-0.50;99.80;;;;;;6224982;28;20490;-62
2021/12/08 02:12:17;;;;;;;13.20;8.63;;;-0.50;99.80;;;;;;6225474;28;20476;-61
2021/12/08 02:15:21;;;;;;;8.37;7.53;;;-0.60;99.70;;;;;;6225074;28;20843;-62
2021/12/08 02:18:24;;;;;;;9.40;7.93;;;-0.50;99.70;;;;;;6225661;28;20476;-62
2021/12/08 02:21:32;;;;;;;11.37;8.40;;;-0.60;99.50;;;;;;6225752;28;20471;-61
2021/12/08 02:24:35;;;;;;;12.10;8.47;;;-0.60;99.50;;;;;;6225766;28;20487;-60
2021/12/08 02:27:38;;;;;;;9.90;8.47;;;-0.50;99.50;;;;;;6223917;28;20476;-62
2021/12/08 02:30:46;;;;;;;9.33;7.57;;;-0.50;99.50;;;;;;6223825;28;20978;-63
2021/12/08 02:47:27;;;;;;;8.37;7.50;;;-0.70;99.40;;;;;;6223678;28;20472;-66
2021/12/08 02:50:35;;;;;;;10.00;7.30;;;-0.80;99.30;;;;;;6225451;28;20444;-66
2021/12/08 02:53:39;;;;;;;11.47;8.67;;;-0.80;99.40;;;;;;6228165;28;20435;-66
2021/12/08 02:56:43;;;;;;;10.60;8.40;;;-0.80;99.50;;;;;;6228147;28;20848;-66
2021/12/08 02:59:47;;;;;;;8.67;7.80;;;-0.80;99.50;;;;;;6229289;28;20499;-65
2021/12/08 03:02:51;;;;;;;7.60;7.00;;;-0.80;99.90;;;;;;6220632;28;20483;-66
2021/12/08 03:05:55;;;;;;;9.80;8.63;;;-0.80;99.60;;;;;;6229614;28;20471;-66
2021/12/08 03:09:00;;;;;;;8.50;7.37;;;-0.70;99.60;;;;;;6229456;28;20471;-66
2021/12/08 03:12:03;;;;;;;8.30;7.43;;;-0.70;99.40;;;;;;6229643;28;20476;-66
2021/12/08 03:15:07;;;;;;;10.23;7.83;;;-0.80;99.10;;;;;;6229486;28;20472;-66
2021/12/08 03:18:11;;;;;;;10.13;7.93;;;-0.80;99.00;;;;;;6228730;28;20494;-66
2021/12/08 03:21:14;;;;;;;12.60;7.60;;;-0.80;99.20;;;;;;6229349;28;20475;-67
2021/12/08 03:24:24;;;;;;;10.40;7.60;;;-0.90;99.20;;;;;;6229188;28;20476;-66
2021/12/08 03:27:34;;;;;;;9.37;8.43;;;-1.00;99.30;;;;;;6229012;28;20486;-66
2021/12/08 03:30:49;;;;;;;9.53;8.33;;;-1.00;99.40;;;;;;6228604;28;20472;-66
2021/12/08 03:33:54;;;;;;;8.07;7.13;;;-1.00;99.70;;;;;;6228500;28;20475;-66
2021/12/08 03:36:57;;;;;;;7.30;6.60;;;-1.00;99.70;;;;;;6228722;28;20472;-66
2021/12/08 03:40:06;;;;;;;8.47;7.47;;;-1.00;99.80;;;;;;6228958;28;20476;-66
2021/12/08 03:43:09;;;;;;;11.53;6.93;;;-1.00;99.70;;;;;;6228404;28;20476;-66
2021/12/08 03:46:16;;;;;;;7.50;6.73;;;-1.00;99.60;;;;;;6228697;28;20974;-66
2021/12/08 03:49:23;;;;;;;7.53;6.83;;;-1.00;99.50;;;;;;6228784;28;20468;-67
2021/12/08 03:52:26;;;;;;;11.30;7.37;;;-1.00;99.50;;;;;;6228571;28;20483;-67
2021/12/08 03:55:31;;;;;;;12.77;8.23;;;-1.00;99.40;;;;;;6227941;28;20819;-65
2021/12/08 03:58:35;;;;;;;11.13;7.60;;;-1.10;99.40;;;;;;6228432;28;20476;-66
2021/12/08 04:01:38;;;;;;;8.70;7.77;;;-1.00;99.30;;;;;;6227487;28;20505;-66
2021/12/08 04:04:45;;;;;;;7.97;6.80;;;-1.10;99.10;;;;;;6228187;28;20565;-66
2021/12/08 04:07:51;;;;;;;7.70;6.90;;;-1.20;99.20;;;;;;6218884;28;20479;-66
2021/12/08 04:10:57;;;;;;;10.03;8.07;;;-1.20;99.40;;;;;;6228129;28;20781;-65
2021/12/08 04:14:03;;;;;;;9.93;6.80;;;-1.20;99.60;;;;;;6228489;28;20483;-65
2021/12/08 04:17:13;;;;;;;10.63;7.33;;;-1.20;99.60;;;;;;6227649;28;20809;-65
2021/12/08 04:20:19;;;;;;;11.37;7.40;;;-1.20;99.40;;;;;;6227730;28;20474;-66
2021/12/08 04:23:24;;;;;;;9.63;6.70;;;-1.30;99.30;;;;;;6227693;28;20476;-65
2021/12/08 04:26:33;;;;;;;7.70;6.90;;;-1.30;99.20;;;;;;6227520;28;20491;-66
2021/12/08 04:29:41;;;;;;;7.50;6.73;;;-1.30;99.20;;;;;;6227142;28;20440;-65
2021/12/08 04:32:44;;;;;;;6.90;5.73;;;-1.30;99.20;;;;;;6227785;28;20455;-66
2021/12/08 04:35:51;;;;;;;9.07;7.43;;;-1.30;99.30;;;;;;6228658;28;20487;-65
2021/12/08 04:38:58;;;;;;;7.73;6.97;;;-1.40;99.40;;;;;;6227716;28;20476;-66
2021/12/08 04:42:07;;;;;;;8.90;6.80;;;-1.30;99.50;;;;;;6228242;28;20472;-65
2021/12/08 04:45:17;;;;;;;9.93;8.07;;;-1.30;99.40;;;;;;6227556;28;20464;-65
2021/12/08 04:48:35;;;;;;;6.93;6.00;;;-1.40;99.40;;;;;;6228242;28;20487;-65
2021/12/08 04:51:53;;;;;;;9.00;8.10;;;-1.30;99.30;;;;;;6228133;28;20970;-66
2021/12/08 05:02:00;;;;;;;6.87;6.30;;;-1.30;99.20;;;;;;6227293;28;20472;-66
2021/12/08 05:05:16;;;;;;;9.60;6.00;;;-1.30;99.20;;;;;;6226410;28;20546;-66
2021/12/08 05:08:23;;;;;;;6.90;6.23;;;-1.40;99.10;;;;;;6226503;28;20468;-67
2021/12/08 05:11:29;;;;;;;7.87;6.77;;;-1.40;98.90;;;;;;6226872;28;20476;-66
2021/12/08 05:14:40;;;;;;;7.60;6.43;;;-1.40;99.00;;;;;;6225871;28;20899;-66
2021/12/08 05:17:49;;;;;;;7.47;6.70;;;-1.40;99.00;;;;;;6226648;28;20955;-66
2021/12/08 05:21:02;;;;;;;9.97;7.53;;;-1.40;99.10;;;;;;6226382;28;20503;-66
2021/12/08 05:24:09;;;;;;;11.13;7.43;;;-1.40;99.00;;;;;;6226776;28;20964;-66
2021/12/08 05:27:17;;;;;;;6.60;5.90;;;-1.50;99.40;;;;;;6226199;28;20472;-66
2021/12/08 05:30:28;;;;;;;8.40;7.00;;;-1.50;99.10;;;;;;6226371;28;20583;-66
2021/12/08 05:33:31;;;;;;;8.47;6.53;;;-1.50;99.00;;;;;;6226479;28;20475;-66
2021/12/08 05:36:36;;;;;;;8.10;7.10;;;-1.50;99.10;;;;;;6226012;28;20599;-65
2021/12/08 05:39:40;;;;;;;7.73;5.93;;;-1.60;99.00;;;;;;6225852;28;20975;-67
2021/12/08 05:42:51;;;;;;;8.60;7.13;;;-1.60;99.00;;;;;;6225943;28;20468;-66
2021/12/08 05:45:56;;;;;;;9.47;7.50;;;-1.60;99.10;;;;;;6225846;28;20475;-65
2021/12/08 05:49:01;;;;;;;9.20;8.07;;;-1.60;99.00;;;;;;6226082;28;20467;-65
2021/12/08 05:52:06;;;;;;;11.80;8.20;;;-1.60;99.10;;;;;;6226236;28;20472;-65
2021/12/08 05:55:10;;;;;;;7.80;7.10;;;-1.60;99.00;;;;;;6226141;28;20491;-65
2021/12/08 05:58:15;;;;;;;8.60;7.20;;;-1.60;99.10;;;;;;6225743;28;20828;-66
2021/12/08 06:01:25;;;;;;;10.73;7.70;;;-1.60;99.20;;;;;;6225863;28;20836;-66
2021/12/08 06:04:30;;;;;;;8.67;7.77;;;-1.60;99.20;;;;;;6225908;28;20894;-65
2021/12/08 06:07:34;;;;;;;10.00;9.00;;;-1.60;99.10;;;;;;6225533;28;20480;-66
2021/12/08 06:10:38;;;;;;;8.57;7.87;;;-1.70;99.00;;;;;;6225315;28;20479;-65
2021/12/08 06:13:43;;;;;;;10.97;7.90;;;-1.70;99.00;;;;;;6221160;28;20487;-66
2021/12/08 06:16:51;;;;;;;7.77;7.07;;;-1.70;99.00;;;;;;6225359;28;20490;-66
2021/12/08 06:19:55;;;;;;;8.93;8.00;;;-1.70;99.00;;;;;;6225688;28;20487;-66
2021/12/08 06:22:59;;;;;;;13.50;8.70;;;-1.70;99.10;;;;;;6225289;28;20478;-67
2021/12/08 06:26:03;;;;;;;10.43;7.70;;;-1.70;99.00;;;;;;6229464;28;20486;-67
2021/12/08 06:29:10;;;;;;;10.83;7.53;;;-1.70;99.10;;;;;;6230440;28;20807;-66
2021/12/08 06:32:16;;;;;;;12.13;9.73;;;-1.60;99.00;;;;;;6230278;28;20475;-66
2021/12/08 06:35:23;;;;;;;10.77;8.83;;;-1.70;99.30;;;;;;6229754;28;20983;-67
2021/12/08 06:38:27;;;;;;;11.63;10.37;;;-1.80;99.20;;;;;;6229831;28;20484;-67
2021/12/08 06:41:34;;;;;;;10.47;9.37;;;-1.80;99.10;;;;;;6230325;28;20826;-66
2021/12/08 06:44:44;;;;;;;9.33;8.43;;;-1.80;99.10;;;;;;6229381;28;20444;-65
2021/12/08 06:47:51;;;;;;;10.57;8.77;;;-1.80;99.20;;;;;;6229553;28;20462;-66
2021/12/08 06:50:58;;;;;;;16.63;11.00;;;-1.80;99.10;;;;;;6229930;28;20474;-66
2021/12/08 06:54:06;;;;;;;15.23;12.37;;;-1.80;99.00;;;;;;6229708;28;20787;-66
2021/12/08 06:57:17;;;;;;;18.97;13.10;;;-1.70;99.10;;;;;;6229295;28;20987;-66
2021/12/08 07:00:35;;;;;;;18.03;12.47;;;-1.80;99.10;;;;;;6229323;28;20476;-66
2021/12/08 07:04:05;;;;;;;17.50;11.17;;;-1.80;99.10;;;;;;6229287;28;20472;-66
2021/12/08 07:07:16;;;;;;;19.60;12.80;;;-1.80;99.30;;;;;;6229333;28;20534;-66
2021/12/08 07:10:24;;;;;;;19.07;13.77;;;-1.90;99.30;;;;;;6228471;28;20964;-65
2021/12/08 07:13:31;;;;;;;15.70;12.90;;;-1.90;99.50;;;;;;6229510;28;20561;-65
2021/12/08 07:16:57;;;;;;;14.40;12.30;;;-1.80;99.60;;;;;;6229191;28;20607;-65
2021/12/08 07:20:15;;;;;;;18.80;13.67;;;-1.80;99.80;;;;;;6216157;28;20488;-65
2021/12/08 07:23:22;;;;;;;12.37;11.17;;;-1.80;99.90;;;;;;6229311;28;20968;-64
2021/12/08 07:26:29;;;;;;;18.40;12.90;;;-1.90;99.90;;;;;;6228610;28;20476;-64
2021/12/08 07:29:37;;;;;;;13.40;11.60;;;-1.80;99.90;;;;;;6229272;28;20452;-64
2021/12/08 07:32:42;;;;;;;18.60;13.20;;;-1.70;99.90;;;;;;6229583;28;20432;-64
2021/12/08 07:35:50;;;;;;;18.17;13.03;;;-1.60;99.90;;;;;;6228401;28;20827;-64
2021/12/08 07:38:56;;;;;;;16.30;11.67;;;-1.50;99.90;;;;;;6228371;28;20930;-64
2021/12/08 07:42:04;;;;;;;20.40;12.03;;;-1.40;99.90;;;;;;6229061;28;20482;-64
2021/12/08 07:45:11;;;;;;;13.80;10.30;;;-1.30;99.80;;;;;;6228710;28;20490;-64
2021/12/08 07:48:18;;;;;;;14.47;11.97;;;-1.20;99.60;;;;;;6228186;28;20478;-65
2021/12/08 07:51:29;;;;;;;12.70;11.50;;;-1.20;99.40;;;;;;6228125;28;20960;-65
2021/12/08 07:54:33;;;;;;;13.53;11.23;;;-1.10;99.40;;;;;;6228193;28;20476;-65
2021/12/08 07:57:37;;;;;;;14.57;10.47;;;-1.00;99.40;;;;;;6228251;28;20476;-65
2021/12/08 08:00:45;;;;;;;11.13;9.70;;;-0.90;99.40;;;;;;6228064;28;20468;-65
2021/12/08 08:03:50;;;;;;;11.37;9.40;;;-0.90;99.30;;;;;;6228076;28;20803;-65
2021/12/08 08:06:57;;;;;;;12.30;11.00;;;-0.90;99.10;;;;;;6227944;28;20960;-65
2021/12/08 08:10:02;;;;;;;12.23;9.20;;;-0.90;99.40;;;;;;6228366;28;20479;-64
2021/12/08 08:13:08;;;;;;;11.73;9.93;;;-0.80;99.40;;;;;;6228126;28;20487;-64
2021/12/08 08:16:17;;;;;;;14.00;8.57;;;-0.70;99.40;;;;;;6229143;28;20476;-64
2021/12/08 08:19:26;;;;;;;12.87;8.77;;;-0.50;99.40;;;;;;6229472;28;20534;-64
2021/12/08 08:22:32;;;;;;;8.77;7.97;;;-0.50;99.30;;;;;;6220089;28;20476;-65
2021/12/08 08:25:41;;;;;;;9.07;8.07;;;-0.40;99.00;;;;;;6227927;28;20502;-66
2021/12/08 08:28:50;;;;;;;10.27;7.63;;;-0.30;99.10;;;;;;6227963;28;20960;-65
2021/12/08 08:31:59;;;;;;;12.23;10.20;;;-0.20;99.10;;;;;;6227139;28;20543;-65
2021/12/08 08:35:08;;;;;;;10.53;8.90;;;-0.10;99.00;;;;;;6225637;28;20487;-65
2021/12/08 08:38:18;;;;;;;11.13;8.20;;;0.00;99.00;;;;;;6226795;28;20534;-65
2021/12/08 08:41:27;;;;;;;10.63;8.87;;;0.10;98.90;;;;;;6227836;28;20495;-65
2021/12/08 08:44:34;;;;;;;10.20;9.20;;;0.20;98.70;;;;;;6226829;28;20455;-66
2021/12/08 08:47:41;;;;;;;10.27;9.20;;;0.30;98.50;;;;;;6226601;28;20472;-65
2021/12/08 08:50:49;;;;;;;12.83;10.07;;;0.40;98.50;;;;;;6227415;28;20432;-65
2021/12/08 08:54:00;;;;;;;12.23;9.57;;;0.40;98.30;;;;;;6227082;28;20504;-65
2021/12/08 08:57:08;;;;;;;16.60;10.60;;;0.50;98.30;;;;;;6226417;28;20476;-65
2021/12/08 09:00:17;;;;;;;11.80;8.60;;;0.60;98.30;;;;;;6226265;28;20952;-65
2021/12/08 09:03:25;;;;;;;13.80;7.90;;;0.60;98.20;;;;;;6227210;28;20898;-66
2021/12/08 09:06:32;;;;;;;8.80;8.00;;;0.70;98.30;;;;;;6226894;28;20479;-65
2021/12/08 09:09:39;;;;;;;10.70;9.13;;;0.90;98.40;;;;;;6226382;28;20483;-65
2021/12/08 09:12:45;;;;;;;12.50;8.60;;;1.00;98.30;;;;;;6226805;28;20467;-65
2021/12/08 09:15:53;;;;;;;8.47;7.63;;;1.00;98.40;;;;;;6226692;28;20486;-65
2021/12/08 09:19:10;;;;;;;10.20;9.03;;;1.10;98.60;;;;;;6226678;28;20532;-65
2021/12/08 09:22:18;;;;;;;10.63;8.50;;;1.20;98.80;;;;;;6226411;28;20476;-65
2021/12/08 09:25:30;;;;;;;13.30;8.97;;;1.40;98.50;;;;;;6221342;28;20487;-65
2021/12/08 09:28:37;;;;;;;9.60;8.37;;;1.50;98.00;;;;;;6226480;28;20502;-65
2021/12/08 09:31:42;;;;;;;13.10;9.87;;;1.60;98.00;;;;;;6226128;28;20751;-65
2021/12/08 09:34:54;;;;;;;13.47;10.83;;;1.80;97.80;;;;;;6225872;28;20480;-66
2021/12/08 09:38:01;;;;;;;13.80;10.90;;;2.10;97.50;;;;;;6225962;28;20476;-65
2021/12/08 09:41:12;;;;;;;16.50;13.40;;;2.20;97.00;;;;;;6225879;28;20486;-66
2021/12/08 09:44:19;;;;;;;16.13;13.37;;;2.40;96.60;;;;;;6224320;28;20994;-66
2021/12/08 09:47:28;;;;;;;22.50;14.00;;;2.50;96.10;;;;;;6201521;28;20476;-67
2021/12/08 09:50:32;;;;;;;16.37;12.67;;;2.60;96.10;;;;;;6201929;28;20451;-66
2021/12/08 09:53:35;;;;;;;14.80;12.47;;;2.80;96.00;;;;;;6209991;28;20591;-65
2021/12/08 09:56:41;;;;;;;15.00;12.10;;;2.90;95.40;;;;;;6220317;28;20964;-65
2021/12/08 09:59:47;;;;;;;14.30;12.83;;;3.00;95.40;;;;;;6226139;28;20444;-66
2021/12/08 10:02:56;;;;;;;12.20;11.00;;;3.20;95.40;;;;;;6226340;28;20466;-65
2021/12/08 10:06:00;;;;;;;18.00;13.70;;;3.50;95.30;;;;;;6226198;28;20480;-67
2021/12/08 10:09:04;;;;;;;12.57;10.67;;;3.80;94.50;;;;;;6223970;28;20920;-66
2021/12/08 10:12:09;;;;;;;12.73;11.40;;;3.90;94.10;;;;;;6233495;28;20460;-66
2021/12/08 10:15:16;;;;;;;13.70;12.37;;;4.10;94.00;;;;;;6245596;28;20477;-66
2021/12/08 10:18:19;;;;;;;14.47;11.40;;;4.40;93.80;;;;;;6246711;28;20475;-66
2021/12/08 10:21:31;;;;;;;12.33;11.03;;;4.70;93.50;;;;;;6234917;28;20490;-65
2021/12/08 10:24:34;;;;;;;16.83;12.00;;;4.90;92.90;;;;;;6233108;28;20464;-66
2021/12/08 10:28:06;;;;;;;11.90;10.60;;;5.10;92.00;;;;;;6240978;28;20506;-65
2021/12/08 10:31:14;;;;;;;12.73;10.87;;;4.90;91.80;;;;;;6219386;28;20468;-65
2021/12/08 10:34:24;;;;;;;13.30;10.43;;;5.00;91.10;;;;;;6225351;28;20909;-66
2021/12/08 10:37:27;;;;;;;14.70;9.00;;;4.90;90.70;;;;;;6225923;28;20967;-66
2021/12/08 10:40:31;;;;;;;12.47;10.27;;;4.60;90.30;;;;;;6224977;28;20815;-67
2021/12/08 10:43:35;;;;;;;13.27;10.40;;;4.30;90.40;;;;;;6225392;28;20464;-67
2021/12/08 10:46:39;;;;;;;12.70;11.33;;;4.20;90.90;;;;;;6224993;28;20487;-67
2021/12/08 10:56:36;;;;;;;10.50;9.40;;;3.70;92.10;;;;;;6224774;28;20498;-65
2021/12/08 10:59:56;;;;;;;12.93;9.50;;;3.50;92.80;;;;;;6226240;28;20475;-66
2021/12/08 11:03:01;;;;;;;12.37;10.23;;;3.30;92.90;;;;;;6224942;28;20968;-65
2021/12/08 11:06:05;;;;;;;14.33;11.57;;;3.20;93.30;;;;;;6225032;28;20480;-65
2021/12/08 11:09:16;;;;;;;13.53;8.77;;;3.10;93.50;;;;;;6224805;28;20471;-66
2021/12/08 11:12:21;;;;;;;8.57;7.10;;;3.30;93.40;;;;;;6228369;28;20810;-65
2021/12/08 11:15:31;;;;;;;8.53;7.70;;;4.20;93.30;;;;;;6229656;28;20982;-65
2021/12/08 11:18:39;;;;;;;8.47;7.63;;;5.00;90.90;;;;;;6234710;28;20983;-66
2021/12/08 11:21:46;;;;;;;9.90;6.63;;;5.50;87.70;;;;;;6234756;28;20476;-65
2021/12/08 11:24:57;;;;;;;8.23;7.40;;;5.70;85.30;;;;;;6230638;28;20479;-67
2021/12/08 11:28:18;;;;;;;8.27;7.20;;;5.50;84.70;;;;;;6229902;28;20487;-66
2021/12/08 11:31:23;;;;;;;21.00;15.73;;;5.50;84.70;;;;;;6230239;28;20471;-67
2021/12/08 11:34:29;;;;;;;18.00;12.60;;;5.40;84.90;;;;;;6219594;28;20501;-66
2021/12/08 11:37:36;;;;;;;23.87;15.23;;;6.40;81.10;;;;;;6228110;28;20478;-66
2021/12/08 11:40:39;;;;;;;23.20;14.80;;;8.50;72.30;;;;;;6228803;28;20472;-67
2021/12/08 11:43:43;;;;;;;18.03;11.47;;;9.90;64.80;;;;;;6228698;28;20781;-66
2021/12/08 11:46:50;;;;;;;34.57;21.57;;;9.80;60.70;;;;;;6228433;28;20980;-66
2021/12/08 11:49:56;;;;;;;26.70;18.83;;;8.80;61.30;;;;;;6229190;28;20828;-66
2021/12/08 11:52:59;;;;;;;27.80;17.50;;;7.80;64.00;;;;;;6229512;28;20479;-65
2021/12/08 11:56:02;;;;;;;25.87;16.80;;;7.20;66.40;;;;;;6229330;28;20479;-66
2021/12/08 11:59:10;;;;;;;35.63;20.63;;;6.70;68.00;;;;;;6228954;28;20479;-66
2021/12/08 12:02:17;;;;;;;20.47;15.40;;;6.40;70.20;;;;;;6227952;28;20563;-66
2021/12/08 12:05:23;;;;;;;14.67;10.93;;;6.00;70.90;;;;;;6227502;28;20487;-65
2021/12/08 12:08:26;;;;;;;14.00;9.87;;;5.60;72.40;;;;;;6227811;28;20468;-67
2021/12/08 12:11:30;;;;;;;11.63;10.17;;;5.40;73.40;;;;;;6227812;28;20479;-67
2021/12/08 12:14:34;;;;;;;12.83;9.80;;;5.00;74.80;;;;;;6228275;28;20924;-67
2021/12/08 12:17:40;;;;;;;14.23;11.00;;;4.70;75.90;;;;;;6228450;28;20456;-65
2021/12/08 12:20:46;;;;;;;15.80;10.17;;;4.50;77.10;;;;;;6228616;28;20551;-65
2021/12/08 12:24:01;;;;;;;10.53;9.43;;;4.40;78.40;;;;;;6227916;28;20480;-64
2021/12/08 12:27:16;;;;;;;10.10;9.00;;;4.30;79.50;;;;;;6228184;28;20468;-66
2021/12/08 12:30:27;;;;;;;12.30;9.40;;;4.10;80.50;;;;;;6228572;28;20973;-66
2021/12/08 12:33:41;;;;;;;13.40;9.50;;;4.00;81.90;;;;;;6228829;28;20471;-65
2021/12/08 12:36:44;;;;;;;9.27;8.37;;;3.90;83.20;;;;;;6219433;28;20483;-66
2021/12/08 12:39:48;;;;;;;12.73;11.30;;;3.80;83.20;;;;;;6228181;28;20476;-65
2021/12/08 12:42:54;;;;;;;11.00;8.63;;;3.80;84.60;;;;;;6228311;28;20467;-65
2021/12/08 12:46:05;;;;;;;9.00;8.17;;;3.80;84.90;;;;;;6227370;28;20857;-65
2021/12/08 12:49:24;;;;;;;11.13;8.87;;;3.70;85.10;;;;;;6216338;28;20495;-66
2021/12/08 12:52:35;;;;;;;14.30;10.53;;;3.70;85.50;;;;;;6215302;28;20480;-65
2021/12/08 12:55:46;;;;;;;11.50;9.90;;;3.60;86.20;;;;;;6213396;28;21892;-65
2021/12/08 12:58:52;;;;;;;18.70;10.67;;;3.50;87.60;;;;;;6213792;28;20539;-65
2021/12/08 13:02:06;;;;;;;17.63;11.70;;;3.50;87.80;;;;;;6215647;28;20472;-66
2021/12/08 13:05:12;;;;;;;14.67;11.80;;;3.40;88.70;;;;;;6214673;28;20797;-67
2021/12/08 13:08:30;;;;;;;20.70;14.10;;;3.30;89.10;;;;;;6213024;28;20481;-66
2021/12/08 13:11:54;;;;;;;14.87;11.53;;;3.40;89.50;;;;;;6220916;28;20444;-67
2021/12/08 13:15:13;;;;;;;12.00;9.33;;;3.30;89.40;;;;;;6220401;28;20476;-65
2021/12/08 13:18:17;;;;;;;14.80;10.67;;;3.40;89.60;;;;;;6202491;28;20465;-65
2021/12/08 13:21:38;;;;;;;13.40;10.47;;;3.30;90.00;;;;;;6202669;28;20479;-66
2021/12/08 13:24:44;;;;;;;12.97;10.00;;;3.40;90.20;;;;;;6202303;28;20465;-66
2021/12/08 13:27:50;;;;;;;11.73;9.40;;;3.40;90.40;;;;;;6202201;28;20476;-65
2021/12/08 13:31:04;;;;;;;14.50;10.20;;;3.50;90.60;;;;;;6201925;28;20483;-66
2021/12/08 13:34:10;;;;;;;12.63;10.00;;;3.50;90.50;;;;;;6217697;28;20515;-66
2021/12/08 13:37:19;;;;;;;12.37;10.00;;;3.50;90.30;;;;;;6227294;28;20483;-65
2021/12/08 13:40:39;;;;;;;14.07;10.10;;;3.50;90.40;;;;;;6227151;28;20474;-65
2021/12/08 13:43:45;;;;;;;13.60;10.70;;;3.50;90.30;;;;;;6226412;28;20957;-65
2021/12/08 13:46:50;;;;;;;13.10;9.23;;;3.60;90.30;;;;;;6225601;28;20479;-65
2021/12/08 13:49:56;;;;;;;11.87;8.83;;;4.00;90.30;;;;;;6226376;28;20467;-64
2021/12/08 13:53:08;;;;;;;10.43;9.53;;;4.30;88.20;;;;;;6225922;28;20468;-65
2021/12/08 13:56:11;;;;;;;10.97;9.00;;;4.60;86.40;;;;;;6212072;28;20485;-64
2021/12/08 13:59:54;;;;;;;14.00;10.10;;;4.90;87.60;;;;;;6221173;28;20459;-65
2021/12/08 14:03:05;;;;;;;20.23;10.53;;;5.70;84.10;;;;;;6212477;28;20457;-66
2021/12/08 14:06:09;;;;;;;14.00;9.43;;;6.00;82.00;;;;;;6202176;28;20472;-66
2021/12/08 14:09:16;;;;;;;14.30;9.87;;;6.10;81.40;;;;;;6212860;28;20564;-66
2021/12/08 14:12:20;;;;;;;14.00;10.03;;;6.20;80.40;;;;;;6247361;28;20482;-66
2021/12/08 14:15:26;;;;;;;13.03;9.83;;;6.20;79.30;;;;;;6247320;28;21171;-67
2021/12/08 14:18:32;;;;;;;17.60;10.20;;;6.40;80.40;;;;;;6246597;28;20817;-67
2021/12/08 14:21:36;;;;;;;13.40;10.40;;;6.60;79.80;;;;;;6247364;28;20486;-67
2021/12/08 14:25:01;;;;;;;10.60;9.50;;;6.90;79.00;;;;;;6248366;28;20494;-67
2021/12/08 14:28:42;;;;;;;14.77;9.30;;;6.70;77.10;;;;;;6249712;28;20478;-67
2021/12/08 14:31:48;;;;;;;13.27;10.53;;;6.30;77.10;;;;;;6249890;28;20490;-66
2021/12/08 14:34:52;;;;;;;13.57;10.30;;;5.80;77.90;;;;;;6227074;28;20980;-66
2021/12/08 14:38:01;;;;;;;10.90;9.50;;;5.40;79.20;;;;;;6225086;28;20476;-67
2021/12/08 14:41:21;;;;;;;12.03;10.00;;;5.10;80.60;;;;;;6224857;28;20479;-65
2021/12/08 14:44:26;;;;;;;15.10;10.57;;;4.80;81.80;;;;;;6216277;28;20484;-68
2021/12/08 14:47:34;;;;;;;12.03;9.70;;;4.60;83.10;;;;;;6228620;28;20484;-67
2021/12/08 14:50:37;;;;;;;13.97;10.70;;;4.40;83.80;;;;;;6231203;28;20444;-66
2021/12/08 14:53:40;;;;;;;15.37;10.97;;;4.10;84.80;;;;;;6230546;28;20479;-66
2021/12/08 14:57:01;;;;;;;13.27;11.10;;;3.90;86.20;;;;;;6231726;28;20482;-66
2021/12/08 15:00:08;;;;;;;16.13;11.17;;;3.40;88.40;;;;;;6234044;28;20478;-65
2021/12/08 15:03:14;;;;;;;14.60;12.17;;;3.20;89.30;;;;;;6230864;28;20484;-66
2021/12/08 15:06:19;;;;;;;16.10;12.23;;;3.10;90.40;;;;;;6229871;28;20479;-66
2021/12/08 15:09:25;;;;;;;15.90;12.50;;;2.90;90.80;;;;;;6230393;28;20459;-66
2021/12/08 15:12:30;;;;;;;17.67;13.00;;;2.80;91.10;;;;;;6231403;28;20479;-66
2021/12/08 15:15:35;;;;;;;15.33;12.83;;;2.70;91.90;;;;;;6229926;28;20789;-66
2021/12/08 15:18:38;;;;;;;16.80;12.40;;;2.50;92.50;;;;;;6229556;28;20482;-66
2021/12/08 15:21:47;;;;;;;17.00;11.97;;;2.40;92.90;;;;;;6229500;28;20463;-66
2021/12/08 15:24:50;;;;;;;15.60;12.30;;;2.40;93.20;;;;;;6229596;28;20490;-65
2021/12/08 15:27:57;;;;;;;15.07;13.27;;;2.30;93.30;;;;;;6230139;28;20475;-65
2021/12/08 15:31:01;;;;;;;16.90;14.57;;;2.20;93.70;;;;;;6234581;28;20468;-66
2021/12/08 15:34:18;;;;;;;23.40;15.47;;;2.20;94.10;;;;;;6241489;28;20548;-67
2021/12/08 15:37:21;;;;;;;23.03;14.07;;;2.20;94.40;;;;;;6240834;28;20495;-66
2021/12/08 15:40:27;;;;;;;19.40;13.67;;;2.20;94.50;;;;;;6235405;28;21021;-66
2021/12/08 15:43:32;;;;;;;17.07;14.20;;;2.20;94.80;;;;;;6226592;28;20488;-66
2021/12/08 15:46:36;;;;;;;16.00;13.73;;;2.30;95.00;;;;;;6238662;28;20566;-66
2021/12/08 15:49:42;;;;;;;19.40;15.93;;;2.30;95.00;;;;;;6241115;28;20463;-66
2021/12/08 15:52:50;;;;;;;18.03;14.33;;;2.40;95.00;;;;;;6230242;28;20798;-66
2021/12/08 15:55:55;;;;;;;19.87;14.70;;;2.40;95.40;;;;;;6230142;28;20480;-66
2021/12/08 15:59:04;;;;;;;18.70;15.30;;;2.40;95.10;;;;;;6230179;28;20476;-66
2021/12/08 16:02:15;;;;;;;19.80;15.80;;;2.40;95.00;;;;;;6229285;28;20504;-67
2021/12/08 16:05:23;;;;;;;28.97;17.80;;;2.40;95.20;;;;;;6228017;28;20480;-66
2021/12/08 16:08:29;;;;;;;21.83;16.10;;;2.30;95.40;;;;;;6228636;28;20479;-66
2021/12/08 16:11:35;;;;;;;16.37;14.10;;;2.30;95.60;;;;;;6228940;28;20793;-66
2021/12/08 16:14:41;;;;;;;18.77;16.27;;;2.30;95.80;;;;;;6227833;28;20907;-66
2021/12/08 16:17:44;;;;;;;17.70;13.93;;;2.30;95.90;;;;;;6227841;28;20464;-66
2021/12/08 16:20:47;;;;;;;20.97;16.50;;;2.20;96.10;;;;;;6227831;28;20459;-66
2021/12/08 16:23:51;;;;;;;21.63;16.30;;;2.20;96.20;;;;;;6227530;28;20523;-67
2021/12/08 16:26:57;;;;;;;19.93;15.33;;;2.30;96.30;;;;;;6227479;28;20464;-66
2021/12/08 16:30:02;;;;;;;22.70;15.63;;;2.30;96.40;;;;;;6227150;28;20510;-66
2021/12/08 16:33:06;;;;;;;18.80;13.70;;;2.20;96.30;;;;;;6227813;28;20471;-66
2021/12/08 16:36:09;;;;;;;17.80;14.43;;;2.20;96.30;;;;;;6227734;28;20490;-66
2021/12/08 16:39:14;;;;;;;21.80;15.63;;;2.10;96.30;;;;;;6227458;28;20475;-67
2021/12/08 16:45:41;;;;;;;19.60;14.07;;;2.10;96.60;;;;;;6221375;28;20487;-66